createdAt,value
2019-05-15T00:02:02.909Z,39.92
2019-05-15T00:04:43.343Z,39.83
2019-05-15T00:07:25.613Z,37.67
2019-05-15T00:10:04.716Z,38.83
2019-05-15T00:12:42.244Z,36.40
2019-05-15T00:15:19.562Z,36.70
2019-05-15T00:17:58.078Z,34.65
2019-05-15T00:20:39.621Z,34.78
2019-05-15T00:23:18.392Z,36.60
2019-05-15T00:25:58.379Z,34.85
2019-05-15T00:28:36.001Z,35.03
2019-05-15T00:31:13.627Z,34.92
2019-05-15T00:33:50.756Z,37.05
2019-05-15T00:36:30.009Z,42.93
2019-05-15T00:39:08.649Z,42.62
2019-05-15T00:41:54.100Z,44.25
2019-05-15T00:44:28.018Z,47.00
2019-05-15T00:47:05.262Z,45.35
2019-05-15T00:49:42.774Z,46.98
2019-05-15T00:52:20.314Z,49.85
2019-05-15T00:54:58.934Z,50.05
2019-05-15T00:57:39.366Z,51.63
2019-05-15T01:00:18.640Z,49.35
2019-05-15T01:02:57.860Z,47.93
2019-05-15T01:05:34.903Z,46.13
2019-05-15T01:08:12.496Z,49.33
2019-05-15T01:10:50.467Z,46.05
2019-05-15T01:13:29.057Z,45.50
2019-05-15T01:16:08.901Z,47.50
2019-05-15T01:18:46.019Z,36.83
2019-05-15T01:21:23.473Z,38.28
2019-05-15T01:24:01.471Z,28.17
2019-05-15T01:26:38.960Z,29.32
2019-05-15T01:29:18.228Z,32.33
2019-05-15T01:31:55.339Z,33.75
2019-05-15T01:34:34.046Z,30.77
2019-05-15T01:37:11.217Z,33.02
2019-05-15T01:39:48.882Z,30.95
2019-05-15T01:42:27.991Z,31.07
2019-05-15T01:45:08.711Z,35.08
2019-05-15T01:47:45.180Z,34.48
2019-05-15T01:50:22.473Z,36.28
2019-05-15T01:52:59.732Z,33.30
2019-05-15T01:55:39.386Z,31.95
2019-05-15T01:58:18.601Z,34.00
2019-05-15T02:00:58.976Z,31.27
2019-05-15T02:03:38.322Z,29.30
2019-05-15T02:06:19.027Z,29.87
2019-05-15T02:08:58.874Z,28.80
2019-05-15T02:11:38.678Z,31.40
2019-05-15T02:14:18.802Z,30.30
2019-05-15T02:17:00.155Z,34.03
2019-05-15T02:19:39.170Z,35.65
2019-05-15T02:22:18.778Z,35.48
2019-05-15T02:24:55.914Z,36.20
2019-05-15T02:27:34.034Z,36.40
2019-05-15T02:30:22.646Z,33.98
2019-05-15T02:32:50.780Z,36.58
2019-05-15T02:35:29.616Z,33.75
2019-05-15T02:38:10.091Z,33.75
2019-05-15T02:40:49.392Z,35.03
2019-05-15T02:43:29.871Z,35.52
2019-05-15T02:46:10.027Z,36.17
2019-05-15T02:48:48.957Z,41.28
2019-05-15T02:51:25.643Z,40.20
2019-05-15T02:54:03.199Z,38.55
2019-05-15T02:56:40.420Z,27.50
2019-05-15T02:59:19.407Z,24.90
2019-05-15T03:01:59.430Z,24.12
2019-05-15T03:04:39.776Z,23.20
2019-05-15T03:07:18.986Z,22.65
2019-05-15T03:09:54.562Z,24.52
2019-05-15T03:12:32.017Z,29.80
2019-05-15T03:15:10.359Z,30.77
2019-05-15T03:17:49.487Z,32.53
2019-05-15T03:20:29.876Z,30.97
2019-05-15T03:23:09.625Z,28.25
2019-05-15T03:25:48.896Z,27.50
2019-05-15T03:28:25.481Z,25.27
2019-05-15T03:31:22.540Z,26.45
2019-05-15T03:33:46.671Z,26.85
2019-05-15T03:36:24.113Z,28.32
2019-05-15T03:39:01.885Z,26.87
2019-05-15T03:41:40.150Z,30.90
2019-05-15T03:44:19.789Z,27.85
2019-05-15T03:46:59.600Z,26.00
2019-05-15T03:49:39.724Z,24.27
2019-05-15T03:52:19.042Z,23.83
2019-05-15T03:54:58.842Z,24.90
2019-05-15T03:57:39.783Z,28.57
2019-05-15T04:00:19.302Z,29.82
2019-05-15T04:02:59.016Z,29.82
2019-05-15T04:05:38.946Z,31.12
2019-05-15T04:08:19.176Z,35.28
2019-05-15T04:10:55.162Z,30.10
2019-05-15T04:13:34.970Z,31.80
2019-05-15T04:16:12.670Z,31.37
2019-05-15T04:18:50.624Z,32.67
2019-05-15T04:21:30.361Z,35.38
2019-05-15T04:24:09.629Z,36.05
2019-05-15T04:26:48.888Z,35.45
2019-05-15T04:29:28.930Z,36.60
2019-05-15T04:32:06.326Z,38.00
2019-05-15T04:34:44.793Z,35.10
2019-05-15T04:37:22.366Z,33.20
2019-05-15T04:40:00.314Z,33.67
2019-05-15T04:42:39.720Z,32.83
2019-05-15T04:45:19.449Z,32.15
2019-05-15T04:47:58.864Z,35.13
2019-05-15T04:50:40.065Z,35.13
2019-05-15T04:53:19.212Z,34.83
2019-05-15T04:55:59.453Z,32.73
2019-05-15T04:58:39.538Z,37.00
2019-05-15T05:01:20.037Z,36.35
2019-05-15T05:03:58.895Z,34.25
2019-05-15T05:06:38.675Z,32.33
2019-05-15T05:09:15.824Z,33.58
2019-05-15T05:11:53.092Z,32.23
2019-05-15T05:14:30.421Z,31.07
2019-05-15T05:17:09.059Z,33.28
2019-05-15T05:19:47.898Z,32.83
2019-05-15T05:22:28.219Z,32.13
2019-05-15T05:25:08.057Z,32.05
2019-05-15T05:27:49.968Z,34.15
2019-05-15T05:30:29.308Z,33.78
2019-05-15T05:33:08.495Z,33.65
2019-05-15T05:35:48.165Z,31.17
2019-05-15T05:38:25.158Z,31.93
2019-05-15T05:41:02.817Z,30.88
2019-05-15T05:43:40.446Z,31.90
2019-05-15T05:46:18.431Z,31.07
2019-05-15T05:48:58.296Z,31.80
2019-05-15T05:51:35.793Z,33.08
2019-05-15T05:54:13.805Z,37.10
2019-05-15T05:56:51.074Z,31.77
2019-05-15T05:59:28.801Z,24.32
2019-05-15T06:02:08.270Z,23.92
2019-05-15T06:04:47.935Z,23.10
2019-05-15T06:07:27.910Z,21.48
2019-05-15T06:10:04.844Z,22.85
2019-05-15T06:12:42.197Z,22.50
2019-05-15T06:15:19.280Z,21.52
2019-05-15T06:17:58.450Z,20.48
2019-05-15T06:20:36.272Z,16.17
2019-05-15T06:23:13.468Z,15.85
2019-05-15T06:25:51.679Z,14.53
2019-05-15T06:28:29.776Z,14.25
2019-05-15T06:31:08.964Z,13.45
2019-05-15T06:33:46.319Z,14.10
2019-05-15T06:36:23.515Z,13.55
2019-05-15T06:39:00.992Z,14.30
2019-05-15T06:41:40.410Z,14.25
2019-05-15T06:44:18.746Z,13.83
2019-05-15T06:46:58.582Z,13.48
2019-05-15T06:49:34.781Z,14.07
2019-05-15T06:52:12.514Z,14.68
2019-05-15T06:54:50.074Z,15.05
2019-05-15T06:57:28.738Z,16.12
2019-05-15T07:00:08.083Z,14.33
2019-05-15T07:02:48.766Z,15.68
2019-05-15T07:05:29.321Z,16.77
2019-05-15T07:08:05.583Z,16.27
2019-05-15T07:10:43.032Z,15.68
2019-05-15T07:13:21.257Z,14.90
2019-05-15T07:15:58.729Z,15.63
2019-05-15T07:18:38.797Z,16.40
2019-05-15T07:21:18.240Z,14.93
2019-05-15T07:23:58.134Z,16.07
2019-05-15T07:26:39.179Z,16.62
2019-05-15T07:31:53.524Z,17.05
2019-05-15T07:34:31.877Z,24.23
2019-05-15T07:37:09.795Z,27.55
2019-05-15T07:39:48.837Z,27.55
2019-05-15T07:42:28.906Z,24.70
2019-05-15T07:45:08.132Z,23.27
2019-05-15T07:47:44.829Z,28.02
2019-05-15T07:50:22.197Z,27.40
2019-05-15T07:52:59.459Z,28.47
2019-05-15T07:55:39.374Z,28.15
2019-05-15T07:58:20.244Z,27.45
2019-05-15T08:00:58.781Z,28.67
2019-05-15T08:03:35.090Z,28.32
2019-05-15T08:06:13.733Z,27.40
2019-05-15T08:08:51.279Z,28.30
2019-05-15T08:11:28.778Z,28.35
2019-05-15T08:14:06.014Z,29.48
2019-05-15T08:16:45.070Z,27.67
2019-05-15T08:19:22.666Z,28.40
2019-05-15T08:22:00.373Z,30.17
2019-05-15T08:24:39.127Z,27.37
2019-05-15T08:27:19.094Z,26.27
2019-05-15T08:29:58.137Z,25.17
2019-05-15T08:32:38.894Z,23.75
2019-05-15T08:35:18.939Z,23.32
2019-05-15T08:37:57.994Z,22.58
2019-05-15T08:40:35.313Z,23.52
2019-05-15T08:43:13.088Z,24.57
2019-05-15T08:45:50.513Z,23.90
2019-05-15T08:48:28.053Z,23.80
2019-05-15T08:51:08.705Z,21.80
2019-05-15T08:53:48.324Z,21.42
2019-05-15T08:56:25.312Z,22.77
2019-05-15T08:59:02.651Z,22.05
2019-05-15T09:01:40.377Z,21.40
2019-05-15T09:04:30.221Z,19.70
2019-05-15T09:07:01.164Z,18.75
2019-05-15T09:09:38.398Z,19.15
2019-05-15T09:12:20.729Z,18.20
2019-05-15T09:14:58.294Z,18.82
2019-05-15T09:17:36.105Z,18.50
2019-05-15T09:20:14.077Z,17.15
2019-05-15T09:22:52.715Z,17.92
2019-05-15T09:25:30.012Z,16.67
2019-05-15T09:28:08.639Z,17.87
2019-05-15T09:30:48.262Z,16.42
2019-05-15T09:33:28.598Z,17.07
2019-05-15T09:36:06.305Z,17.07
2019-05-15T09:38:44.388Z,17.55
2019-05-15T09:41:22.177Z,17.87
2019-05-15T09:44:00.966Z,18.10
2019-05-15T09:46:38.926Z,17.92
2019-05-15T09:49:18.215Z,18.05
2019-05-15T09:51:58.429Z,16.93
2019-05-15T09:54:38.478Z,18.25
2019-05-15T09:57:14.723Z,18.15
2019-05-15T09:59:52.035Z,17.07
2019-05-15T10:02:29.385Z,17.17
2019-05-15T10:05:10.879Z,16.40
2019-05-15T10:07:47.157Z,17.80
2019-05-15T10:10:28.457Z,17.50
2019-05-15T10:13:05.917Z,17.40
2019-05-15T10:15:47.441Z,17.35
2019-05-15T10:18:22.860Z,19.57
2019-05-15T10:21:01.265Z,17.62
2019-05-15T10:23:40.340Z,16.95
2019-05-15T10:26:19.278Z,21.12
2019-05-15T10:28:58.421Z,18.55
2019-05-15T10:31:38.771Z,17.42
2019-05-15T10:34:18.108Z,16.62
2019-05-15T10:36:55.195Z,17.80
2019-05-15T10:39:33.045Z,19.30
2019-05-15T10:42:10.515Z,20.12
2019-05-15T10:44:48.835Z,18.35
2019-05-15T10:47:28.952Z,18.90
2019-05-15T10:50:07.829Z,18.00
2019-05-15T10:52:44.951Z,17.10
2019-05-15T10:55:22.593Z,19.98
2019-05-15T10:58:00.599Z,19.02
2019-05-15T11:00:37.914Z,19.87
2019-05-15T11:03:15.204Z,18.07
2019-05-15T11:05:52.223Z,17.98
2019-05-15T11:08:30.064Z,17.45
2019-05-15T11:11:09.111Z,16.05
2019-05-15T11:13:46.841Z,15.55
2019-05-15T11:16:24.369Z,16.90
2019-05-15T11:19:02.326Z,15.83
2019-05-15T11:21:43.519Z,17.23
2019-05-15T11:24:20.265Z,16.37
2019-05-15T11:26:59.458Z,16.32
2019-05-15T11:29:38.195Z,15.28
2019-05-15T11:32:16.201Z,14.40
2019-05-15T11:34:53.592Z,14.15
2019-05-15T11:37:31.202Z,14.63
2019-05-15T11:40:10.323Z,14.20
2019-05-15T11:42:49.017Z,14.80
2019-05-15T11:45:28.917Z,13.80
2019-05-15T11:48:05.151Z,13.95
2019-05-15T11:50:43.410Z,14.50
2019-05-15T11:53:20.765Z,16.25
2019-05-15T11:55:59.836Z,15.98
2019-05-15T11:58:38.994Z,14.07
2019-05-15T12:01:19.268Z,14.00
2019-05-15T12:03:58.366Z,15.68
2019-05-15T12:06:35.076Z,14.60
2019-05-15T12:09:12.633Z,14.33
2019-05-15T12:11:50.857Z,13.68
2019-05-15T12:14:29.822Z,13.75
2019-05-15T12:17:12.460Z,14.33
2019-05-15T12:19:54.913Z,15.38
2019-05-15T12:22:24.488Z,13.40
2019-05-15T12:25:01.774Z,14.30
2019-05-15T12:27:40.706Z,13.70
2019-05-15T12:30:19.884Z,13.48
2019-05-15T12:33:00.213Z,13.93
2019-05-15T12:35:39.673Z,13.70
2019-05-15T12:38:18.606Z,13.48
2019-05-15T13:02:11.296Z,14.15
2019-05-15T13:04:49.096Z,14.03
2019-05-15T13:07:28.418Z,13.72
2019-05-15T13:10:08.472Z,14.00
2019-05-15T13:12:59.120Z,13.13
2019-05-15T13:15:28.170Z,13.35
2019-05-15T13:18:12.855Z,12.75
2019-05-15T13:20:45.875Z,13.48
2019-05-15T13:23:23.356Z,13.68
2019-05-15T13:26:01.426Z,13.38
2019-05-15T13:28:39.107Z,13.38
2019-05-15T13:31:18.953Z,14.60
2019-05-15T13:33:58.572Z,14.70
2019-05-15T13:36:35.657Z,14.87
2019-05-15T13:39:13.964Z,13.65
2019-05-15T13:41:51.161Z,15.45
2019-05-15T13:44:40.813Z,16.65
2019-05-15T13:47:22.263Z,17.82
2019-05-15T13:50:00.032Z,18.05
2019-05-15T13:52:39.258Z,18.40
2019-05-15T13:55:24.850Z,18.20
2019-05-15T13:57:57.980Z,16.12
2019-05-15T14:00:34.785Z,15.90
2019-05-15T14:03:12.408Z,14.53
2019-05-15T14:05:50.042Z,16.00
2019-05-15T14:08:28.936Z,14.78
2019-05-15T14:11:06.244Z,13.38
2019-05-15T14:13:43.890Z,13.98
2019-05-15T14:16:21.269Z,13.60
2019-05-15T14:18:59.411Z,13.60
2019-05-15T14:21:37.919Z,13.75
2019-05-15T14:24:17.842Z,14.00
2019-05-15T14:26:54.888Z,13.62
2019-05-15T14:29:32.835Z,13.08
2019-05-15T14:32:10.358Z,14.05
2019-05-15T14:34:50.853Z,13.60
2019-05-15T14:37:28.599Z,14.28
2019-05-15T14:40:08.745Z,13.62
2019-05-15T14:42:45.406Z,13.28
2019-05-15T14:45:23.413Z,14.20
2019-05-15T14:48:00.768Z,14.05
2019-05-15T14:50:38.416Z,13.20
2019-05-15T14:53:18.623Z,13.83
2019-05-15T14:55:59.987Z,13.78
2019-05-15T14:58:35.358Z,13.78
2019-05-15T15:01:13.402Z,13.48
2019-05-15T15:03:51.133Z,13.20
2019-05-15T15:06:28.978Z,12.50
2019-05-15T15:09:08.444Z,13.38
2019-05-15T15:11:45.605Z,12.05
2019-05-15T15:14:22.894Z,12.78
2019-05-15T15:17:00.034Z,12.37
2019-05-15T15:19:38.856Z,11.70
2019-05-15T15:22:17.323Z,11.88
2019-05-15T15:24:55.746Z,12.82
2019-05-15T15:27:33.471Z,13.20
2019-05-15T15:30:10.845Z,14.13
2019-05-15T15:32:49.323Z,13.83
2019-05-15T15:35:28.897Z,13.25
2019-05-15T15:38:11.915Z,13.18
2019-05-15T15:40:48.119Z,14.10
2019-05-15T15:43:28.815Z,13.45
2019-05-15T15:46:08.639Z,13.05
2019-05-15T15:48:45.486Z,13.60
2019-05-15T15:51:23.308Z,12.70
2019-05-15T15:54:01.167Z,14.15
2019-05-15T15:56:39.610Z,13.62
2019-05-15T15:59:18.194Z,13.45
2019-05-15T16:01:55.811Z,13.58
2019-05-15T16:04:33.982Z,13.55
2019-05-15T16:07:11.482Z,13.68
2019-05-15T16:09:48.835Z,13.30
2019-05-15T16:12:27.818Z,13.80
2019-05-15T16:15:08.579Z,13.75
2019-05-15T16:17:44.845Z,13.90
2019-05-15T16:20:22.119Z,13.70
2019-05-15T16:22:59.303Z,14.25
2019-05-15T16:25:38.517Z,14.60
2019-05-15T16:28:18.460Z,13.62
2019-05-15T16:30:58.551Z,13.60
2019-05-15T16:33:36.190Z,14.25
2019-05-15T16:36:14.627Z,13.48
2019-05-15T16:39:04.105Z,14.13
2019-05-15T16:41:30.977Z,13.60
2019-05-15T16:44:08.729Z,14.25
2019-05-15T16:46:48.148Z,15.23
2019-05-15T16:49:28.440Z,13.78
2019-05-15T16:52:05.840Z,14.33
2019-05-15T16:54:43.181Z,14.85
2019-05-15T16:57:21.048Z,14.70
2019-05-15T16:59:59.367Z,16.35
2019-05-15T17:02:39.171Z,16.82
2019-05-15T17:05:18.739Z,15.98
2019-05-15T17:07:58.356Z,15.63
2019-05-15T17:10:36.000Z,15.90
2019-05-15T17:13:13.533Z,15.48
2019-05-15T17:15:50.902Z,15.85
2019-05-15T17:18:29.209Z,16.30
2019-05-15T17:21:10.038Z,15.25
2019-05-15T17:23:45.940Z,15.38
2019-05-15T17:26:23.348Z,15.28
2019-05-15T17:29:01.224Z,15.93
2019-05-15T17:31:39.567Z,15.63
2019-05-15T17:34:17.936Z,16.30
2019-05-15T17:36:58.323Z,15.13
2019-05-15T17:39:38.898Z,15.43
2019-05-15T17:42:14.461Z,14.87
2019-05-15T17:44:53.049Z,14.13
2019-05-15T17:47:30.178Z,13.55
2019-05-15T17:50:08.587Z,13.30
2019-05-15T17:52:48.942Z,13.18
2019-05-15T17:55:27.838Z,13.43
2019-05-15T17:58:05.052Z,12.78
2019-05-15T18:00:43.515Z,13.22
2019-05-15T18:03:21.594Z,13.70
2019-05-15T18:05:59.238Z,14.30
2019-05-15T18:08:39.073Z,12.88
2019-05-15T18:11:18.674Z,13.72
2019-05-15T18:13:58.054Z,14.63
2019-05-15T18:16:35.482Z,15.55
2019-05-15T18:19:13.550Z,16.23
2019-05-15T18:21:54.047Z,15.18
2019-05-15T18:24:31.636Z,16.12
2019-05-15T18:27:09.178Z,15.28
2019-05-15T18:29:48.070Z,15.32
2019-05-15T18:32:28.637Z,15.53
2019-05-15T18:35:08.342Z,15.80
2019-05-15T18:37:48.261Z,16.93
2019-05-15T18:40:27.799Z,16.60
2019-05-15T18:43:05.883Z,16.32
2019-05-15T18:45:43.463Z,16.60
2019-05-15T18:48:21.185Z,17.05
2019-05-15T18:50:58.916Z,17.17
2019-05-15T18:53:40.400Z,17.55
2019-05-15T18:56:18.706Z,16.95
2019-05-15T18:58:57.859Z,17.37
2019-05-15T19:01:35.597Z,17.00
2019-05-15T19:04:14.500Z,18.62
2019-05-15T19:06:52.796Z,18.52
2019-05-15T19:09:30.646Z,21.00
2019-05-15T19:12:09.222Z,20.17
2019-05-15T19:14:49.407Z,21.45
2019-05-15T19:17:27.539Z,20.90
2019-05-15T19:20:05.394Z,21.68
2019-05-15T19:22:42.718Z,21.48
2019-05-15T19:25:21.164Z,22.15
2019-05-15T19:27:58.246Z,23.67
2019-05-15T19:30:35.910Z,25.43
2019-05-15T19:33:13.614Z,26.57
2019-05-15T19:35:51.881Z,26.15
2019-05-15T19:38:30.733Z,26.82
2019-05-15T19:41:09.682Z,28.87
2019-05-15T19:43:48.726Z,30.55
2019-05-15T19:46:28.352Z,31.80
2019-05-15T19:49:08.582Z,36.05
2019-05-15T19:51:48.516Z,35.23
2019-05-15T19:54:25.149Z,35.50
2019-05-15T19:57:04.212Z,36.73
2019-05-15T19:59:42.886Z,36.53
2019-05-15T20:02:20.389Z,36.08
2019-05-15T20:04:58.316Z,35.92
2019-05-15T20:07:38.419Z,36.93
2019-05-15T20:10:18.290Z,36.73
2019-05-15T20:12:55.521Z,36.05
2019-05-15T20:15:33.214Z,37.85
2019-05-15T20:18:11.717Z,37.13
2019-05-15T20:20:49.096Z,36.70
2019-05-15T20:23:28.729Z,36.15
2019-05-15T20:26:05.456Z,36.50
2019-05-15T20:28:44.114Z,36.65
2019-05-15T20:31:22.003Z,35.03
2019-05-15T20:34:05.683Z,34.20
2019-05-15T20:36:39.146Z,35.68
2019-05-15T20:39:17.706Z,35.65
2019-05-15T20:41:58.328Z,35.48
2019-05-15T20:44:37.917Z,35.43
2019-05-15T20:47:15.716Z,35.58
2019-05-15T20:49:54.327Z,35.40
2019-05-15T20:52:31.344Z,36.20
2019-05-15T20:55:08.730Z,35.28
2019-05-15T20:57:49.774Z,36.60
2019-05-15T21:00:25.986Z,36.48
2019-05-15T21:03:03.516Z,36.13
2019-05-15T21:05:41.448Z,29.87
2019-05-15T21:08:18.689Z,34.58
2019-05-15T21:10:59.155Z,34.33
2019-05-15T21:13:38.422Z,35.88
2019-05-15T21:16:18.743Z,34.48
2019-05-15T21:18:57.731Z,35.40
2019-05-15T21:21:34.794Z,28.60
2019-05-15T21:24:11.942Z,27.65
2019-05-15T21:26:49.655Z,27.45
2019-05-15T21:29:27.103Z,28.25
2019-05-15T21:32:04.668Z,25.68
2019-05-15T21:34:44.425Z,21.75
2019-05-15T21:37:21.556Z,20.80
2019-05-15T21:39:59.867Z,18.62
2019-05-15T21:42:41.732Z,18.70
2019-05-15T21:45:18.318Z,17.85
2019-05-15T21:48:00.468Z,16.07
2019-05-15T21:50:34.825Z,15.28
2019-05-15T21:53:13.162Z,16.45
2019-05-15T21:55:50.754Z,16.10
2019-05-15T21:58:28.575Z,17.05
2019-05-15T22:01:08.078Z,17.15
2019-05-15T22:03:45.382Z,17.10
2019-05-15T22:06:22.446Z,17.27
2019-05-15T22:09:00.561Z,16.77
2019-05-15T22:11:40.341Z,16.32
2019-05-15T22:14:18.814Z,15.72
2019-05-15T22:16:58.143Z,14.47
2019-05-15T22:19:38.511Z,13.55
2019-05-15T22:22:17.870Z,22.60
2019-05-15T22:24:55.234Z,21.12
2019-05-15T22:27:37.895Z,23.90
2019-05-15T22:32:51.624Z,33.48
2019-05-15T22:35:29.798Z,34.43
2019-05-15T22:38:08.839Z,30.65
2019-05-15T22:40:48.681Z,30.62
2019-05-15T22:43:25.674Z,32.50
2019-05-15T22:46:02.889Z,31.27
2019-05-15T22:48:41.306Z,28.90
2019-05-15T22:51:18.658Z,27.80
2019-05-15T22:53:57.983Z,27.90
2019-05-15T22:56:37.767Z,25.62
2019-05-15T22:59:15.395Z,25.55
2019-05-15T23:01:52.875Z,25.35
2019-05-15T23:04:30.418Z,22.25
2019-05-15T23:07:08.278Z,19.25
2019-05-15T23:09:45.738Z,18.05
2019-05-15T23:12:23.704Z,17.77
2019-05-15T23:15:01.151Z,15.70
2019-05-15T23:17:39.101Z,12.63
2019-05-15T23:20:17.900Z,12.90
2019-05-15T23:22:58.181Z,14.53
2019-05-15T23:25:34.678Z,11.57
2019-05-15T23:28:13.398Z,12.20
2019-05-15T23:30:51.216Z,12.25
2019-05-15T23:33:29.155Z,13.40
2019-05-15T23:36:06.494Z,12.98
2019-05-15T23:38:44.623Z,11.28
2019-05-15T23:41:22.802Z,10.80
2019-05-15T23:44:00.808Z,12.25
2019-05-15T23:46:38.366Z,12.88
2019-05-15T23:49:16.398Z,12.40
2019-05-15T23:51:54.949Z,13.58
2019-05-15T23:54:32.093Z,12.90
2019-05-15T23:57:09.611Z,12.28
2019-05-15T23:59:47.854Z,13.70
